• Join FlightAware (Why Join?)
  • Login
  • US Flag 
09:41AM EST


 

Airport Tracker/Info


-or-


 

Live Flight TrackerFlight Track Log ✈ AWE1897 ✈ 26-Jun-2013 ✈ KBWI - KCLT

Flight Track Log - Related Links

Times and Time Zones

All times are in EDT time to prevent confusion due to time zone crossing. See the AWE1897 flight status page for this flight to view local times or setup timezone preferences in your user account.

Time Position Orientation Groundspeed Altitude Reporting Facility
EDT Latitude Longitude Course Direction KTS MPH feet Rate Location/Type
08:21PM 39.1833 -76.7500 211° Southwest 184 212 2,000  Level Potomac TRACON
08:22PM 39.1833 -76.8167 270° West 224 258 4,200 2,340 Climbing Potomac TRACON
08:23PM 39.2000 -77.0212 270° West  Level FlightAware Approximate
08:23PM 39.2167 -76.9167 293° West 272 313 7,000  Level Potomac TRACON
08:24PM 39.2000 -77.1426 270° West  Level FlightAware Approximate
08:24PM 39.2167 -77.0000 270° West 268 308 9,600  Level Potomac TRACON
08:25PM 39.1258 -77.2115 211° Southwest  Level FlightAware Approximate
08:25PM 39.2167 -77.1167 270° West 295 339 11,800  Level Potomac TRACON
08:26PM 39.0452 -77.2741 211° Southwest  Level FlightAware Approximate
08:26PM 39.1667 -77.2000 232° Southwest 317 365 14,000  Level Potomac TRACON
08:27PM 39.0833 -77.2333 197° South 332 382 16,100 1,740 Climbing Potomac TRACON
08:28PM 38.9833 -77.2833 201° Southwest 357 411 17,500 1,620 Climbing Potomac TRACON
08:29PM 38.9000 -77.3167 197° South 378 435 19,200 1,620 Climbing Potomac TRACON
08:31PM 38.7344 -77.4386 210° Southwest 383 441 22,000 1,500 Climbing Washington Center
08:32PM 38.6497 -77.5269 219° Southwest 383 441 23,600 1,440 Climbing Washington Center
08:33PM 38.5650 -77.6122 218° Southwest 389 448 24,900 1,020 Climbing Washington Center
08:34PM 38.4736 -77.7025 218° Southwest 408 470 25,700 1,080 Climbing Washington Center
08:35PM 38.3825 -77.7928 218° Southwest 418 481 27,100 1,200 Climbing Washington Center
08:36PM 38.2869 -77.8878 218° Southwest 429 494 28,200 1,020 Climbing Washington Center
08:37PM 38.1972 -77.9908 222° Southwest 435 501 29,200 1,080 Climbing Washington Center
08:38PM 38.1075 -78.0933 222° Southwest 441 507 30,400 1,080 Climbing Washington Center
08:39PM 38.0350 -78.1753 222° Southwest 441 507 31,400 780 Climbing Washington Center
08:40PM 37.9281 -78.2956 222° Southwest 441 507 32,000 240 Climbing Washington Center
08:41PM 37.8361 -78.3972 221° Southwest 441 507 32,000  Level Washington Center
08:42PM 37.7439 -78.4964 220° Southwest 441 507 32,000  Level Washington Center
08:43PM 37.6517 -78.6031 222° Southwest 446 513 32,000  Level Washington Center
08:44PM 37.5572 -78.7042 220° Southwest 446 513 32,000  Level Washington Center
08:45PM 37.4733 -78.7975 221° Southwest 446 513 32,000  Level Washington Center
08:46PM 37.3789 -78.9006 221° Southwest 446 513 32,000  Level Washington Center
08:47PM 37.2842 -79.0011 220° Southwest 446 513 32,000  Level Washington Center
08:48PM 37.1894 -79.1036 221° Southwest 446 513 32,000  Level Washington Center
08:49PM 37.0967 -79.2061 221° Southwest 451 519 32,000  Level Washington Center
08:50PM 36.9931 -79.3183 221° Southwest 451 519 32,000  Level Washington Center
08:51PM 36.9003 -79.4203 221° Southwest 445 512 32,000 -60 Level Washington Center
08:52PM 36.8053 -79.5194 220° Southwest 445 512 31,900 -480 Descending Washington Center
08:53PM 36.7122 -79.6208 221° Southwest 450 518 31,100 -900 Descending Washington Center
08:54PM 36.6183 -79.7219 221° Southwest 455 524 30,100 -1,500 Descending Atlanta Center
08:55PM 36.5319 -79.8092 219° Southwest 431 496 28,200 -2,220 Descending Atlanta Center
08:56PM 36.4392 -79.9019 219° Southwest 431 496 25,700 -2,340 Descending Atlanta Center
08:57PM 36.3333 -79.9872 213° Southwest 426 490 23,600 -1,920 Descending Atlanta Center
08:58PM 36.2422 -80.0639 214° Southwest 414 476 21,900 -1,740 Descending Atlanta Center
08:59PM 36.1550 -80.1403 215° Southwest 403 464 20,200 -1,800 Descending Atlanta Center
09:00PM 36.0653 -80.2139 214° Southwest 398 458 18,400 -1,800 Descending Atlanta Center
09:01PM 35.9903 -80.2817 216° Southwest 386 444 16,700 -1,740 Descending Atlanta Center
09:01PM 35.9375 -80.3303 217° Southwest 365 420 15,800 -1,320 Descending Atlanta Center
09:02PM 35.8603 -80.3978 215° Southwest 334 384 14,700 -1,380 Descending Atlanta Center
09:03PM 35.7869 -80.4600 215° Southwest 313 360 13,100 -1,620 Descending Atlanta Center
09:04PM 35.7136 -80.5194 213° Southwest 314 361 11,500 -1,380 Descending Atlanta Center
09:05PM 35.6331 -80.5458 195° South 291 335 10,300 -1,620 Descending Atlanta Center
09:06PM 35.5544 -80.5697 194° South 271 312 8,300 -1,680 Descending Atlanta Center
09:07PM 35.4842 -80.5956 197° South 264 304 7,000 -900 Descending Atlanta Center
09:08PM 35.4333 -80.6411 216° Southwest 237 273 6,600 -720 Descending Atlanta Center
09:09PM 35.3933 -80.6989 230° Southwest 227 261 5,700 -1,260 Descending Atlanta Center
09:10PM 35.3508 -80.7539 227° Southwest 220 253 4,100 -1,620 Descending Atlanta Center